createdAt,value
2019-01-22T00:00:27.903Z,34.17
2019-01-22T00:02:57.343Z,31.47
2019-01-22T00:05:26.314Z,34.93
2019-01-22T00:07:55.322Z,35.00
2019-01-22T00:10:24.293Z,34.73
2019-01-22T00:12:53.279Z,34.87
2019-01-22T00:15:22.802Z,37.67
2019-01-22T00:17:51.789Z,33.23
2019-01-22T00:20:20.850Z,33.37
2019-01-22T00:22:49.856Z,29.40
2019-01-22T00:25:18.899Z,33.50
2019-01-22T00:27:47.978Z,33.87
2019-01-22T00:30:21.351Z,31.10
2019-01-22T00:32:50.518Z,30.53
2019-01-22T00:35:19.483Z,30.70
2019-01-22T00:37:48.463Z,30.63
2019-01-22T00:40:18.597Z,26.53
2019-01-22T00:42:47.912Z,32.50
2019-01-22T00:45:17.337Z,27.90
2019-01-22T00:47:46.311Z,27.20
2019-01-22T00:50:17.813Z,27.90
2019-01-22T00:52:46.794Z,31.23
2019-01-22T00:55:18.110Z,28.80
2019-01-22T00:57:47.308Z,30.10
2019-01-22T01:00:25.211Z,30.10
2019-01-22T01:02:54.328Z,29.43
2019-01-22T01:05:23.456Z,30.47
2019-01-22T01:07:52.675Z,31.23
2019-01-22T01:10:22.010Z,29.03
2019-01-22T01:12:51.052Z,32.53
2019-01-22T01:15:20.178Z,28.23
2019-01-22T01:17:49.138Z,31.83
2019-01-22T01:20:20.639Z,34.13
2019-01-22T01:22:49.615Z,33.73
2019-01-22T01:25:20.951Z,32.70
2019-01-22T01:27:50.382Z,29.03
2019-01-22T01:30:21.967Z,29.23
2019-01-22T01:32:51.779Z,32.63
2019-01-22T01:35:20.774Z,34.23
2019-01-22T01:37:49.950Z,28.50
2019-01-22T01:40:19.978Z,30.27
2019-01-22T01:42:49.027Z,33.77
2019-01-22T01:45:18.349Z,30.07
2019-01-22T01:47:47.460Z,31.73
2019-01-22T01:50:17.604Z,33.13
2019-01-22T01:52:46.803Z,30.77
2019-01-22T01:55:17.028Z,29.40
2019-01-22T01:57:46.162Z,28.13
2019-01-22T02:00:17.870Z,27.33
2019-01-22T02:02:46.925Z,29.50
2019-01-22T02:05:16.050Z,28.80
2019-01-22T02:07:45.166Z,30.47
2019-01-22T02:10:17.077Z,35.83
2019-01-22T02:12:57.835Z,28.93
2019-01-22T02:15:29.907Z,33.30
2019-01-22T02:18:04.761Z,33.87
2019-01-22T02:20:36.826Z,35.47
2019-01-22T02:23:11.999Z,30.03
2019-01-22T02:25:49.911Z,28.13
2019-01-22T02:28:43.043Z,28.70
2019-01-22T02:31:31.566Z,30.53
2019-01-22T02:34:03.622Z,25.57
2019-01-22T02:36:58.110Z,29.87
2019-01-22T02:40:00.598Z,28.17
2019-01-22T02:42:38.687Z,30.30
2019-01-22T02:45:22.546Z,29.57
2019-01-22T02:48:00.222Z,31.50
2019-01-22T02:50:41.120Z,28.50
2019-01-22T02:53:13.166Z,27.23
2019-01-22T02:55:59.970Z,30.17
2019-01-22T02:58:48.540Z,30.67
2019-01-22T03:01:38.509Z,29.90
2019-01-22T03:04:10.571Z,29.00
2019-01-22T03:06:48.579Z,27.90
2019-01-22T03:09:23.183Z,27.83
2019-01-22T03:12:07.671Z,26.90
2019-01-22T03:15:00.316Z,28.73
2019-01-22T03:17:59.612Z,27.83
2019-01-22T03:20:37.314Z,24.23
2019-01-22T03:23:15.046Z,26.03
2019-01-22T03:25:53.057Z,27.00
2019-01-22T03:28:39.834Z,28.83
2019-01-22T03:31:20.187Z,28.53
2019-01-22T03:33:57.937Z,28.53
2019-01-22T03:36:29.986Z,28.27
2019-01-22T03:39:11.146Z,29.33
2019-01-22T03:41:58.098Z,31.97
2019-01-22T03:44:49.555Z,27.53
2019-01-22T03:47:24.334Z,30.23
2019-01-22T03:50:15.695Z,28.43
2019-01-22T03:52:50.910Z,28.40
2019-01-22T03:55:25.523Z,31.73
2019-01-22T03:57:54.595Z,26.97
2019-01-22T04:00:23.878Z,25.83
2019-01-22T04:02:53.388Z,28.60
2019-01-22T04:05:22.386Z,29.67
2019-01-22T04:07:51.435Z,27.60
2019-01-22T04:10:23.482Z,27.67
2019-01-22T04:12:52.482Z,28.27
2019-01-22T04:15:25.898Z,30.00
2019-01-22T04:17:54.872Z,30.40
2019-01-22T04:20:23.932Z,30.77
2019-01-22T04:22:53.002Z,29.87
2019-01-22T04:25:38.579Z,25.83
2019-01-22T04:28:29.976Z,33.60
2019-01-22T04:31:07.540Z,28.47
2019-01-22T04:33:54.409Z,28.90
2019-01-22T04:36:47.568Z,27.70
2019-01-22T04:39:34.559Z,29.07
2019-01-22T04:42:12.497Z,30.47
2019-01-22T04:45:04.429Z,29.43
2019-01-22T04:47:54.487Z,30.33
2019-01-22T04:50:50.497Z,30.97
2019-01-22T04:53:25.392Z,29.63
2019-01-22T04:56:16.465Z,31.13
2019-01-22T04:58:51.377Z,27.77
2019-01-22T05:01:38.634Z,34.30
2019-01-22T05:04:19.733Z,31.50
2019-01-22T05:07:18.956Z,31.10
2019-01-22T05:10:13.890Z,32.90
2019-01-22T05:13:13.055Z,32.83
2019-01-22T05:16:05.942Z,36.53
2019-01-22T05:18:56.195Z,33.00
2019-01-22T05:21:40.375Z,39.63
2019-01-22T05:24:27.503Z,35.27
2019-01-22T05:27:08.481Z,42.47
2019-01-22T05:29:55.246Z,40.47
2019-01-22T05:32:27.753Z,46.03
2019-01-22T05:34:59.804Z,41.00
2019-01-22T05:37:47.955Z,104.10
2019-01-22T05:40:28.835Z,52.47
2019-01-22T05:43:03.868Z,45.13
2019-01-22T05:45:41.594Z,47.67
2019-01-22T05:48:28.865Z,45.80
2019-01-22T05:51:00.922Z,46.13
2019-01-22T05:53:45.274Z,40.93
2019-01-22T05:56:17.350Z,44.00
2019-01-22T05:59:08.998Z,47.70
2019-01-22T06:01:41.051Z,49.50
2019-01-22T06:04:25.002Z,45.80
2019-01-22T06:07:03.163Z,51.07
2019-01-22T06:09:54.894Z,52.00
2019-01-22T06:12:44.906Z,45.43
2019-01-22T06:15:37.768Z,50.67
2019-01-22T06:18:25.106Z,49.90
2019-01-22T06:20:59.970Z,48.60
2019-01-22T06:23:43.751Z,59.53
2019-01-22T06:26:37.078Z,57.67
2019-01-22T06:29:20.603Z,58.03
2019-01-22T06:32:11.815Z,53.50
2019-01-22T06:34:52.516Z,62.73
2019-01-22T06:37:42.554Z,56.07
2019-01-22T06:40:14.602Z,52.00
2019-01-22T06:42:55.289Z,51.90
2019-01-22T06:45:27.346Z,48.27
2019-01-22T06:48:26.550Z,73.60
2019-01-22T06:51:13.378Z,60.30
2019-01-22T06:53:48.134Z,72.43
2019-01-22T06:56:29.157Z,55.30
2019-01-22T06:59:22.083Z,86.90
2019-01-22T07:02:10.658Z,64.47
2019-01-22T07:04:51.519Z,82.40
2019-01-22T07:07:40.087Z,80.47
2019-01-22T07:10:37.764Z,75.33
2019-01-22T07:13:15.711Z,62.87
2019-01-22T07:16:04.346Z,80.53
2019-01-22T07:19:05.343Z,61.07
2019-01-22T07:21:54.023Z,58.87
2019-01-22T07:24:35.079Z,72.83
2019-01-22T07:27:34.539Z,63.40
2019-01-22T07:30:32.201Z,65.53
2019-01-22T07:33:13.006Z,61.40
2019-01-22T07:35:53.479Z,65.23
2019-01-22T07:38:34.050Z,77.23
2019-01-22T07:41:08.917Z,58.87
2019-01-22T07:44:00.470Z,66.33
2019-01-22T07:46:52.146Z,48.50
2019-01-22T07:49:49.899Z,52.00
2019-01-22T07:52:21.968Z,53.83
2019-01-22T07:55:18.016Z,51.90
2019-01-22T07:58:12.724Z,56.13
2019-01-22T08:00:47.246Z,46.23
2019-01-22T08:03:53.674Z,55.80
2019-01-22T08:06:45.279Z,51.97
2019-01-22T08:09:29.411Z,51.17
2019-01-22T08:12:10.201Z,50.67
2019-01-22T08:14:45.245Z,53.80
2019-01-22T08:17:19.971Z,49.13
2019-01-22T08:19:52.031Z,50.90
2019-01-22T08:22:42.256Z,48.73
2019-01-22T08:25:42.935Z,56.40
2019-01-22T08:28:32.896Z,44.87
2019-01-22T08:31:10.971Z,45.77
2019-01-22T08:34:16.235Z,49.43
2019-01-22T08:36:54.067Z,49.83
2019-01-22T08:39:28.818Z,53.07
2019-01-22T08:42:19.959Z,51.37
2019-01-22T08:45:25.492Z,48.53
2019-01-22T08:48:14.306Z,48.87
2019-01-22T08:50:52.159Z,49.00
2019-01-22T08:53:32.927Z,50.90
2019-01-22T08:56:30.558Z,50.60
2019-01-22T08:59:02.621Z,51.13
2019-01-22T09:01:40.385Z,52.57
2019-01-22T09:04:24.419Z,47.60
2019-01-22T09:07:11.485Z,50.97
2019-01-22T09:09:46.543Z,49.13
2019-01-22T09:12:33.624Z,48.33
2019-01-22T09:15:11.287Z,50.87
2019-01-22T09:17:51.925Z,53.27
2019-01-22T09:20:44.966Z,52.33
2019-01-22T09:23:37.957Z,49.17
2019-01-22T09:26:12.959Z,53.57
2019-01-22T09:29:01.688Z,50.40
2019-01-22T09:31:45.811Z,53.73
2019-01-22T09:34:41.902Z,53.53
2019-01-22T09:37:13.969Z,48.87
2019-01-22T09:39:43.049Z,49.53
2019-01-22T09:42:12.119Z,52.10
2019-01-22T09:44:41.086Z,53.63
2019-01-22T09:47:10.078Z,50.33
2019-01-22T09:49:39.354Z,50.60
2019-01-22T09:52:08.338Z,47.90
2019-01-22T09:54:37.305Z,45.60
2019-01-22T09:57:06.436Z,47.47
2019-01-22T09:59:35.394Z,48.83
2019-01-22T10:02:04.825Z,44.93
2019-01-22T10:04:33.789Z,44.63
2019-01-22T10:07:02.847Z,39.60
2019-01-22T10:09:31.824Z,43.53
2019-01-22T10:12:00.836Z,31.17
2019-01-22T10:14:29.880Z,34.77
2019-01-22T10:16:58.874Z,38.93
2019-01-22T10:19:27.854Z,39.57
2019-01-22T10:21:56.927Z,42.33
2019-01-22T10:24:25.970Z,40.63
2019-01-22T10:26:54.962Z,41.90
2019-01-22T10:29:24.002Z,45.00
2019-01-22T10:31:52.990Z,43.80
2019-01-22T10:34:21.969Z,44.20
2019-01-22T10:36:51.051Z,47.57
2019-01-22T10:39:20.015Z,41.17
2019-01-22T10:41:49.014Z,42.10
2019-01-22T10:44:17.970Z,38.60
2019-01-22T10:46:46.967Z,46.30
2019-01-22T10:49:15.944Z,39.03
2019-01-22T10:51:44.917Z,38.37
2019-01-22T10:54:13.907Z,37.00
2019-01-22T10:56:42.978Z,33.13
2019-01-22T10:59:11.949Z,38.13
2019-01-22T11:01:40.955Z,34.57
2019-01-22T11:04:10.287Z,34.83
2019-01-22T11:06:39.339Z,37.70
2019-01-22T11:09:09.056Z,37.43
2019-01-22T11:11:38.118Z,37.47
2019-01-22T11:14:07.182Z,32.80
2019-01-22T11:16:36.165Z,37.37
2019-01-22T11:19:05.279Z,32.13
2019-01-22T11:21:34.312Z,33.57
2019-01-22T11:24:03.317Z,37.27
2019-01-22T11:26:32.312Z,35.97
2019-01-22T11:29:01.267Z,33.87
2019-01-22T11:31:30.328Z,34.70
2019-01-22T11:33:59.311Z,34.50
2019-01-22T11:36:28.303Z,34.73
2019-01-22T11:38:57.263Z,36.63
2019-01-22T11:41:26.378Z,33.97
2019-01-22T11:43:55.363Z,36.63
2019-01-22T11:46:24.350Z,39.43
2019-01-22T11:48:53.352Z,35.73
2019-01-22T11:51:22.326Z,35.20
2019-01-22T11:53:51.332Z,37.37
2019-01-22T11:56:20.311Z,34.30
2019-01-22T11:58:49.301Z,32.23
2019-01-22T12:01:18.348Z,36.30
2019-01-22T12:03:47.335Z,37.13
2019-01-22T12:06:16.327Z,38.73
2019-01-22T12:08:47.171Z,36.77
2019-01-22T12:11:16.243Z,35.17
2019-01-22T12:13:45.195Z,33.00
2019-01-22T12:16:14.189Z,40.27
2019-01-22T12:18:43.166Z,38.83
2019-01-22T12:21:12.142Z,36.73
2019-01-22T12:23:41.197Z,40.03
2019-01-22T12:26:10.158Z,38.57
2019-01-22T12:28:39.136Z,35.70
2019-01-22T12:31:08.201Z,39.67
2019-01-22T12:33:37.158Z,38.23
2019-01-22T12:36:06.122Z,40.93
2019-01-22T12:38:35.139Z,34.47
2019-01-22T12:41:04.269Z,39.10
2019-01-22T12:43:33.251Z,39.97
2019-01-22T12:46:02.283Z,40.70
2019-01-22T12:48:31.281Z,39.20
2019-01-22T12:51:00.254Z,48.03
2019-01-22T12:53:29.311Z,42.10
2019-01-22T12:56:04.311Z,40.43
2019-01-22T12:58:29.047Z,45.27
2019-01-22T13:00:58.078Z,49.03
2019-01-22T13:03:27.227Z,45.20
2019-01-22T13:05:56.744Z,46.73
2019-01-22T13:08:25.807Z,43.37
2019-01-22T13:10:54.794Z,47.20
2019-01-22T13:13:24.038Z,44.70
2019-01-22T13:15:53.119Z,47.83
2019-01-22T13:18:23.478Z,48.50
2019-01-22T13:20:52.703Z,42.33
2019-01-22T13:23:21.837Z,48.43
2019-01-22T13:25:50.833Z,46.07
2019-01-22T13:28:19.886Z,44.90
2019-01-22T13:30:49.009Z,49.90
2019-01-22T13:33:18.367Z,49.20
2019-01-22T13:35:47.331Z,48.67
2019-01-22T13:38:16.336Z,46.20
2019-01-22T13:40:45.392Z,48.17
2019-01-22T13:43:14.397Z,44.90
2019-01-22T13:45:43.357Z,49.37
2019-01-22T13:48:14.486Z,48.63
2019-01-22T13:50:43.508Z,52.57
2019-01-22T13:53:12.532Z,51.10
2019-01-22T13:55:41.496Z,45.37
2019-01-22T13:58:10.546Z,49.97
2019-01-22T14:00:39.579Z,51.40
2019-01-22T14:03:08.735Z,48.07
2019-01-22T14:05:37.758Z,54.43
2019-01-22T14:08:06.846Z,47.43
2019-01-22T14:10:35.877Z,53.63
2019-01-22T14:13:04.994Z,53.80
2019-01-22T14:15:36.807Z,58.23
2019-01-22T14:18:06.737Z,59.10
2019-01-22T14:20:35.782Z,53.93
2019-01-22T14:23:04.918Z,52.00
2019-01-22T14:25:33.907Z,56.30
2019-01-22T14:28:02.965Z,52.00
2019-01-22T14:30:36.821Z,55.97
2019-01-22T14:33:06.258Z,52.23
2019-01-22T14:35:35.247Z,53.50
2019-01-22T14:38:04.972Z,54.47
2019-01-22T14:40:34.114Z,55.30
2019-01-22T14:43:03.247Z,50.03
2019-01-22T14:45:32.297Z,51.97
2019-01-22T14:48:01.274Z,53.07
2019-01-22T14:50:32.699Z,49.43
2019-01-22T14:53:01.771Z,46.30
2019-01-22T14:55:30.814Z,50.67
2019-01-22T14:57:59.892Z,51.00
2019-01-22T15:00:30.198Z,49.83
2019-01-22T15:03:00.222Z,52.37
2019-01-22T15:05:29.262Z,47.83
2019-01-22T15:07:58.998Z,46.47
2019-01-22T15:10:28.240Z,50.30
2019-01-22T15:12:58.869Z,44.80
2019-01-22T15:15:27.988Z,48.40
2019-01-22T15:17:56.967Z,50.17
2019-01-22T15:20:27.202Z,44.97
2019-01-22T15:22:56.275Z,52.13
2019-01-22T15:25:25.330Z,45.47
2019-01-22T15:27:54.312Z,52.50
2019-01-22T15:30:26.235Z,49.63
2019-01-22T15:32:55.198Z,49.07
2019-01-22T15:35:24.251Z,49.10
2019-01-22T15:37:53.243Z,47.77
2019-01-22T15:40:24.858Z,47.67
2019-01-22T15:42:53.839Z,49.40
2019-01-22T15:45:23.652Z,50.20
2019-01-22T15:47:52.727Z,48.97
2019-01-22T15:50:23.732Z,52.13
2019-01-22T15:52:52.951Z,56.77
2019-01-22T15:55:24.771Z,44.23
2019-01-22T15:57:53.761Z,49.37
2019-01-22T16:00:25.172Z,46.80
2019-01-22T16:02:54.222Z,49.20
2019-01-22T16:05:23.335Z,47.60
2019-01-22T16:07:52.470Z,45.77
2019-01-22T16:10:21.438Z,49.50
2019-01-22T16:12:50.487Z,45.73
2019-01-22T16:15:21.614Z,50.07
2019-01-22T16:17:50.767Z,51.90
2019-01-22T16:20:22.439Z,43.83
2019-01-22T16:22:51.688Z,43.77
2019-01-22T16:25:21.199Z,48.03
2019-01-22T16:27:50.190Z,48.70
2019-01-22T16:30:21.517Z,45.33
2019-01-22T16:32:50.580Z,44.37
2019-01-22T16:35:21.486Z,42.90
2019-01-22T16:37:50.625Z,41.77
2019-01-22T16:40:19.651Z,46.57
2019-01-22T16:42:49.146Z,41.43
2019-01-22T16:45:30.080Z,47.17
2019-01-22T16:47:59.207Z,45.00
2019-01-22T16:50:30.218Z,44.80
2019-01-22T16:53:01.764Z,46.00
2019-01-22T16:55:36.657Z,42.07
2019-01-22T16:58:05.886Z,47.57
2019-01-22T17:00:36.597Z,37.97
2019-01-22T17:03:07.435Z,42.17
2019-01-22T17:05:36.985Z,43.83
2019-01-22T17:08:06.165Z,39.33
2019-01-22T17:10:35.261Z,39.67
2019-01-22T17:13:04.499Z,39.30
2019-01-22T17:15:33.627Z,38.63
2019-01-22T17:18:02.671Z,44.13
2019-01-22T17:20:34.271Z,39.27
2019-01-22T17:23:03.326Z,39.43
2019-01-22T17:25:32.691Z,41.27
2019-01-22T17:28:01.748Z,39.20
2019-01-22T17:30:31.049Z,40.20
2019-01-22T17:33:16.908Z,39.37
2019-01-22T17:35:46.462Z,42.70
2019-01-22T17:38:15.878Z,45.33
2019-01-22T17:40:44.877Z,34.47
2019-01-22T17:43:13.918Z,36.37
2019-01-22T17:45:42.987Z,38.77
2019-01-22T17:48:12.009Z,40.20
2019-01-22T17:50:41.013Z,35.73
2019-01-22T17:53:09.977Z,37.27
2019-01-22T17:55:38.983Z,39.53
2019-01-22T17:58:08.102Z,37.43
2019-01-22T18:00:37.226Z,35.77
2019-01-22T18:03:06.347Z,37.57
2019-01-22T18:05:35.426Z,33.23
2019-01-22T18:08:04.541Z,32.20
2019-01-22T18:10:33.600Z,34.17
2019-01-22T18:13:02.559Z,36.27
2019-01-22T18:15:31.551Z,37.90
2019-01-22T18:18:00.584Z,34.90
2019-01-22T18:20:29.715Z,39.10
2019-01-22T18:22:58.701Z,36.13
2019-01-22T18:25:27.698Z,37.33
2019-01-22T18:27:56.663Z,33.73
2019-01-22T18:30:26.994Z,34.37
2019-01-22T18:32:55.974Z,38.23
2019-01-22T18:35:28.387Z,36.03
2019-01-22T18:37:57.444Z,35.43
2019-01-22T18:40:26.429Z,39.20
2019-01-22T18:42:55.409Z,34.77
2019-01-22T18:45:24.541Z,34.50
2019-01-22T18:47:53.501Z,38.13
2019-01-22T18:50:26.907Z,36.33
2019-01-22T18:52:55.884Z,35.87
2019-01-22T18:55:24.953Z,39.27
2019-01-22T18:57:53.943Z,42.30
2019-01-22T19:00:24.007Z,35.80
2019-01-22T19:02:53.179Z,36.13
2019-01-22T19:05:22.327Z,36.57
2019-01-22T19:07:51.484Z,34.87
2019-01-22T19:10:28.129Z,35.60
2019-01-22T19:12:57.174Z,37.27
2019-01-22T19:15:26.586Z,36.80
2019-01-22T19:17:55.657Z,37.70
2019-01-22T19:20:24.660Z,37.70
2019-01-22T19:22:53.641Z,60.07
2019-01-22T19:25:25.338Z,38.53
2019-01-22T19:27:54.433Z,38.23
2019-01-22T19:30:25.701Z,35.30
2019-01-22T19:32:54.883Z,34.03
2019-01-22T19:35:24.114Z,35.73
2019-01-22T19:37:53.164Z,35.70
2019-01-22T19:40:22.306Z,34.07
2019-01-22T19:42:51.342Z,35.93
2019-01-22T19:45:26.213Z,38.23
2019-01-22T19:47:55.180Z,38.67
2019-01-22T19:50:24.338Z,37.10
2019-01-22T19:52:53.403Z,32.53
2019-01-22T19:55:22.468Z,34.70
2019-01-22T19:57:51.522Z,36.93
2019-01-22T20:00:23.547Z,33.90
2019-01-22T20:02:52.594Z,33.40
2019-01-22T20:05:21.824Z,34.90
2019-01-22T20:07:50.950Z,34.10
2019-01-22T20:10:20.011Z,32.90
2019-01-22T20:12:49.066Z,33.30
2019-01-22T20:15:20.254Z,31.57
2019-01-22T20:17:49.614Z,32.27
2019-01-22T20:20:19.943Z,31.80
2019-01-22T20:22:49.009Z,33.10
2019-01-22T20:25:18.932Z,33.77
2019-01-22T20:27:48.673Z,35.77
2019-01-22T20:30:20.995Z,32.93
2019-01-22T20:32:50.054Z,35.57
2019-01-22T20:35:19.088Z,35.80
2019-01-22T20:37:48.074Z,35.20
2019-01-22T20:40:17.131Z,33.17
2019-01-22T20:42:46.185Z,31.33
2019-01-22T20:45:23.609Z,34.93
2019-01-22T20:47:52.603Z,31.40
2019-01-22T20:50:21.671Z,33.63
2019-01-22T20:52:50.721Z,32.00
2019-01-22T20:55:21.961Z,32.63
2019-01-22T20:57:54.989Z,31.47
2019-01-22T21:00:23.279Z,33.87
2019-01-22T21:02:52.406Z,32.70
2019-01-22T21:05:26.965Z,34.13
2019-01-22T21:07:56.079Z,31.90
2019-01-22T21:10:27.114Z,35.50
2019-01-22T21:12:56.232Z,34.87
2019-01-22T21:15:25.659Z,35.03
2019-01-22T21:17:54.813Z,38.27
2019-01-22T21:20:24.006Z,36.77
2019-01-22T21:22:53.130Z,39.60
2019-01-22T21:25:23.847Z,34.00
2019-01-22T21:27:53.013Z,31.27
2019-01-22T21:30:33.546Z,37.37
2019-01-22T21:33:03.086Z,33.60
2019-01-22T21:35:32.121Z,32.90
2019-01-22T21:38:01.126Z,32.30
2019-01-22T21:40:30.178Z,34.73
2019-01-22T21:42:59.242Z,33.03
2019-01-22T21:45:29.455Z,34.33
2019-01-22T21:47:58.448Z,33.40
2019-01-22T21:50:27.444Z,30.97
2019-01-22T21:52:56.427Z,34.60
2019-01-22T21:55:25.480Z,34.07
2019-01-22T21:57:54.528Z,36.43
2019-01-22T22:00:25.455Z,32.90
2019-01-22T22:02:54.563Z,32.53
2019-01-22T22:05:26.491Z,32.97
2019-01-22T22:07:55.549Z,34.67
2019-01-22T22:10:24.690Z,36.30
2019-01-22T22:12:53.899Z,35.57
2019-01-22T22:15:25.123Z,36.20
2019-01-22T22:17:54.255Z,33.47
2019-01-22T22:20:23.450Z,36.27
2019-01-22T22:22:52.466Z,36.03
2019-01-22T22:25:22.964Z,39.57
2019-01-22T22:27:52.050Z,37.80
2019-01-22T22:30:29.993Z,40.60
2019-01-22T22:32:59.103Z,39.47
2019-01-22T22:35:28.059Z,41.97
2019-01-22T22:37:57.046Z,39.40
2019-01-22T22:40:26.135Z,37.13
2019-01-22T22:42:55.100Z,39.27
2019-01-22T22:45:25.386Z,35.90
2019-01-22T22:47:54.727Z,42.37
2019-01-22T22:50:31.309Z,38.33
2019-01-22T22:53:00.370Z,42.70
2019-01-22T22:55:29.482Z,38.17
2019-01-22T22:57:58.554Z,42.37
2019-01-22T23:00:33.363Z,37.53
2019-01-22T23:03:03.260Z,37.70
2019-01-22T23:05:32.305Z,39.30
2019-01-22T23:08:01.387Z,38.87
2019-01-22T23:10:30.423Z,37.27
2019-01-22T23:12:59.407Z,38.97
2019-01-22T23:15:28.402Z,43.03
2019-01-22T23:17:57.502Z,41.47
2019-01-22T23:20:28.121Z,38.97
2019-01-22T23:22:57.109Z,41.77
2019-01-22T23:25:26.109Z,44.17
2019-01-22T23:27:55.251Z,44.97
2019-01-22T23:30:24.409Z,39.87
2019-01-22T23:32:53.460Z,45.13
2019-01-22T23:35:24.278Z,45.60
2019-01-22T23:37:54.510Z,48.93
2019-01-22T23:40:23.618Z,40.63
2019-01-22T23:42:52.597Z,42.70
2019-01-22T23:45:21.562Z,44.77
2019-01-22T23:47:52.158Z,41.97
2019-01-22T23:50:21.193Z,44.73
2019-01-22T23:52:50.177Z,41.53
2019-01-22T23:55:19.154Z,43.20
2019-01-22T23:57:48.232Z,43.37
